Ellsworth Air Force Base
KRCA : now visible

Airfield :











YOU CAN JOIN US ON...

 
LOGIN :

Register | Disclaimer

   EN    FR    IT 

 









Legend :    VFR   Marginal VFR   IFR   Intensive IFR   Very Intensive IFR
Visi :
Ceiling :
>= 8 km
>= 3000ft
5 to 8 km
1000 to 3000 ft
1500m to 5 km
500 to 1000 ft
800 to 1500m
200 to 500 ft
< 800m
< 200 ft
Symbols :   Thunderstorms  Fog  Heavy snow  Heavy precipitations  Wind > 20 kt






- Airport Elevation : 3276 ft


KRCA - Ellsworth Air Force Base

CURRENT METAR :
  • 120156Z 33004KT 10SM OVC003 M07/M08 A2990 RMK AO2A CIG 002 RWY13 SLP175 T10691084

EXPIRED METARs :
  • 120056Z 35007KT 10SM OVC003 M07/M08 A2990 RMK AO2A CIG 002 RWY13 SLP178 T10691084
  • 120042Z 36010KT 10SM OVC003 M07/M08 A2989 RMK AO2A OVC V BKN SLP174
  • 120001Z AUTO 04008KT 10SM BKN002 OVC150 M06/M08 A2988 RMK AO2 CIG 002V150 SLP168
  • 112335Z AUTO 05006KT 10SM FEW003 FEW140 SCT170 M05/M07 A2987 RMK AO2 SLP164

TAF AMD TAF KRCA
Valid from the 12 at 01:00 until the 13 at 01:00 UTC


120150Z 1201/1301 15008KT 9999 BKN003 620035 QNH2987INS
BECMG 1202/1203 VRB06KT 9999 BKN030 620309 QNH2993INS
BECMG 1205/1206 VRB06KT 9999 SCT040 QNH2997INS
BECMG 1221/1222 VRB06KT 9999 BKN120 QNH3004INS TX01/1218Z TNM04/1212Z



MET'MAP, your aeronautical weather chart ! - Copyright ORBIFLY December 2007 - Disclaimer

ORBIFLY MET'MAP TEAM :

Programming & Development : Alexandra Zaïnal
Concept & original design : Baudouin d'Aumeries
Assistance for programming : Marc-Olivier Méhu
Technical & hardware support : Manuel Goepfert

Contact : metmap@orbifly.com




SOURCES & CREDITS :

   NOAA       Earth
Advisory